This is the latest recevied weather packets stored in our database for station/object SV2RCS-13. If no packets are shown the sender has not sent any weather packets the latest 10 day(s).
| Time | Temp. | Humidity | Pressure | Rain* | Wind** | Luminosity | Snow |
|---|---|---|---|---|---|---|---|
| 1777152414 | 13.33° C | 48% | 1014.3 hPa | - | - | - | - |
| 1777151814 | 13.33° C | 47% | 1014.3 hPa | - | - | - | - |
| 1777151214 | 13.89° C | 47% | 1014.1 hPa | - | - | - | - |
| 1777150614 | 13.33° C | 47% | 1014.2 hPa | - | - | - | - |
| 1777150014 | 13.89° C | 47% | 1014.2 hPa | - | - | - | - |
| 1777149414 | 13.89° C | 47% | 1014.2 hPa | - | - | - | - |
| 1777148814 | 13.89° C | 46% | 1014.1 hPa | - | - | - | - |
| 1777148214 | 13.89° C | 46% | 1014.1 hPa | - | - | - | - |
| 1777147614 | 13.89° C | 46% | 1014.1 hPa | - | - | - | - |
| 1777147014 | 13.89° C | 47% | 1013.9 hPa | - | - | - | - |
| 1777146414 | 14.44° C | 46% | 1013.9 hPa | - | - | - | - |
| 1777145814 | 14.44° C | 46% | 1013.9 hPa | - | - | - | - |
| 1777145214 | 14.44° C | 46% | 1013.8 hPa | - | - | - | - |
| 1777144614 | 14.44° C | 46% | 1013.7 hPa | - | - | - | - |
| 1777144014 | 14.44° C | 46% | 1013.6 hPa | - | - | - | - |
| 1777143414 | 15° C | 46% | 1013.2 hPa | - | - | - | - |
| 1777142814 | 15° C | 46% | 1013.1 hPa | - | - | - | - |
| 1777142214 | 15° C | 46% | 1013 hPa | - | - | - | - |
| 1777141616 | 15.56° C | 46% | 1012.8 hPa | - | - | - | - |
| 1777141017 | 15.56° C | 47% | 1012.6 hPa | - | - | - | - |
| 1777140413 | 15.56° C | 46% | 1012.6 hPa | - | - | - | - |
| 1777139814 | 16.11° C | 43% | 1012.3 hPa | - | - | - | - |
| 1777139213 | 16.67° C | 42% | 1012 hPa | - | - | - | - |
| 1777138614 | 16.67° C | 40% | 1011.8 hPa | - | - | - | - |
| 1777138014 | 17.22° C | 40% | 1011.6 hPa | - | - | - | - |
* Rain since midnight (hover to see other rain measurements)
** Current wind speed in m/s (hover to see current wind gust speed)